WEATHER DATA

TODAY
Time Temp. Dewp. Hum. Wind dir Wind speed Wind gust Bar. 1h Prec. 24h Prec.
00:03 16.4 11.6 73 0 0.6 1016.4 0.0000 0.0000
00:13 16.3 11.5 73 213 0.3 0.8 1016.3 0.0000 0.0000
00:23 16.3 11.5 73 0 0.6 1016.3 0.0000 0.0000
00:33 16.3 11.5 73 191 0.3 0.6 1016.1 0.0000 0.0000
00:43 16.2 11.4 73 135 0.3 0.6 1015.9 0.0000 0.0000
01:03 16.2 11.4 73 191 0.3 0.6 1015.7 0.0000 0.0000
01:13 16.1 11.3 73 0 0.6 1015.6 0.0000 0.0000
01:34 16.1 11.5 74 0 0.6 1015.2 0.0000 0.0000
01:43 16 11.4 74 0 0.6 1015.2 0.0000 0.0000
01:53 16.1 11.5 74 123 0.3 0.6 1015 0.0000 0.0000
02:14 16 11.2 73 0 0.3 1014.8 0.0000 0.0000
02:24 16 11.2 73 0 0.6 1014.4 0.0000 0.0000
02:34 15.9 11.1 73 0 0.3 1014.5 0.0000 0.0000
02:44 15.9 11.3 74 0 0.6 1014.4 0.0000 0.0000
02:54 15.8 11.2 74 0 0.6 1014.2 0.0000 0.0000
03:04 15.8 11.2 74 215 0.3 0.8 1014 0.0000 0.0000
03:15 15.7 11.1 74 191 0.3 0.6 1014 0.0000 0.0000
03:24 15.7 11.3 75 0 0.6 1013.8 0.0000 0.0000
03:39 15.6 11.2 75 225 0.3 0.8 1013.7 0.0000 0.0000
04:09 15.5 11.1 75 225 0.6 0.8 1013.4 0.0000 0.0000
04:40 15.4 11.2 76 225 0.3 0.8 1013.2 0.0000 0.0000
05:00 15.4 11.2 76 231 0.3 0.8 1013 0.0000 0.0000
05:10 15.4 11.2 76 234 0.3 0.8 1013 0.0000 0.0000
05:25 15.3 10.9 75 225 0.3 0.8 1012.9 0.0000 0.0000
05:36 15.2 10.8 75 225 0.3 0.8 1013 0.0000 0.0000
05:45 15.2 11 76 225 0.3 0.8 1012.8 0.0000 0.0000
06:00 15 10.6 75 225 0.3 0.8 1012.8 0.0000 0.0000
06:11 15.8 12.2 79 221 0.3 0.8 1012.5 0.0000 0.0000
06:21 15.9 10.9 72 225 0.6 0.8 1012.5 0.0000 0.0000
06:30 15.7 10.9 73 225 0.3 0.8 1012.5 0.0000 0.0000
06:40 16.4 11.1 71 225 0.3 0.8 1012.2 0.0000 0.0000
06:51 15.9 10.9 72 225 0.3 0.8 1012.1 0.0000 0.0000
07:01 16.3 12.1 76 225 0.6 0.8 1012 0.0000 0.0000
07:11 16.1 11.1 72 225 0.3 0.6 1012 0.0000 0.0000
07:21 15.9 10.9 72 225 0.3 0.8 1012 0.0000 0.0000
07:31 15.6 10.4 71 225 0.3 0.6 1011.9 0.0000 0.0000
07:41 15.4 10.4 72 225 0.3 0.8 1012 0.0000 0.0000
07:51 15.2 10.2 72 225 0.3 0.8 1012 0.0000 0.0000
08:02 15.1 10.5 74 228 0.3 0.8 1012.1 0.0000 0.0000
08:11 15 10.4 74 228 0.3 0.8 1012 0.0000 0.0000
08:21 15 10.6 75 228 0.3 0.6 1012.1 0.0000 0.0000
08:32 15 10.6 75 232 0.3 0.6 1012 0.0000 0.0000
08:42 15 10.6 75 229 0.3 0.6 1012.1 0.0000 0.0000
08:51 15 10.6 75 225 0.3 0.8 1012.1 0.0000 0.0000
09:01 15.1 10.7 75 229 0.3 0.6 1012.2 0.0000 0.0000
09:12 15.2 11 76 225 0.3 0.8 1012.2 0.0000 0.0000
09:22 15.2 10.8 75 235 0.3 0.8 1012.1 0.0000 0.0000
09:32 15.2 10.8 75 228 0.3 0.8 1011.8 0.0000 0.0000
09:42 15.1 10.9 76 236 0.6 1.1 1011.6 0.0000 0.0000
10:02 15.1 10.9 76 228 0.3 0.8 1011.7 0.0000 0.0000
10:12 15.1 10.9 76 237 0.6 1.1 1011.7 0.0000 0.0000
10:22 15.1 10.9 76 238 0.3 1.1 1011.4 0.0000 0.0000
10:32 15.2 11 76 270 0.3 0.8 1011.4 0.0000 0.0000
10:42 15.3 10.9 75 270 0.3 1.4 1011.4 0.0000 0.0000
10:53 15.6 11.2 75 219 1.1 2.2 1011.2 0.0000 0.0000
11:03 15.8 11.2 74 220 1.1 1.9 1011.3 0.0000 0.0000
11:12 16.1 11.5 74 225 1.1 2.2 1011.3 0.0000 0.0000
11:22 16.6 11.7 73 221 0.8 1.9 1011.3 0.0000 0.0000
11:33 17.1 11.8 71 235 0.8 2.2 1011.1 0.0000 0.0000
11:53 18.2 12.2 68 270 0.3 0.8 1011.1 0.0000 0.0000
12:03 18.7 12.7 68 270 0.3 0.8 1011.1 0.0000 0.0000
12:13 19.3 12.8 66 270 0.3 0.6 1010.9 0.0000 0.0000
12:23 19.8 13 65 194 0.3 0.8 1010.9 0.0000 0.0000
12:33 20.4 13.6 65 164 0.3 0.6 1010.7 0.0000 0.0000
12:43 21 13.7 63 180 0.3 0.6 1010.6 0.0000 0.0000
12:53 21.6 13.8 61 215 0.3 0.8 1010.5 0.0000 0.0000
13:03 22.1 14 60 180 0.3 0.8 1010.4 0.0000 0.0000
13:13 22.6 13.9 58 225 0.3 1.1 1010.3 0.0000 0.0000
13:24 23 14 57 236 0.3 1.1 1010.4 0.0000 0.0000
13:33 23.4 14.1 56 194 0.3 0.8 1010.2 0.0000 0.0000
13:43 23.8 14.5 56 135 0.3 0.8 1010.1 0.0000 0.0000
13:54 24.1 14.5 55 225 0.3 0.8 1010 0.0000 0.0000
14:14 24.6 15 55 210 0.3 0.8 1009.7 0.0000 0.0000
14:24 24.7 14.8 54 225 0.3 0.6 1009.6 0.0000 0.0000
14:45 25.1 15.1 54 225 0.3 0.8 1009.4 0.0000 0.0000
14:55 25.2 14.9 53 240 0.3 0.8 1009.3 0.0000 0.0000
15:05 25.4 15.1 53 203 0.3 0.8 1009.2 0.0000 0.0000
15:16 25.5 14.9 52 233 0.3 1.1 1009 0.0000 0.0000
15:26 25.6 15 52 206 0.3 1.7 1008.8 0.0000 0.0000
15:35 25.6 15 52 180 0.3 0.8 1008.6 0.0000 0.0000
15:46 25.6 15 52 0 0.6 1008.5 0.0000 0.0000
15:56 25.6 15 52 210 0.3 1.1 1008.5 0.0000 0.0000
16:06 25.5 14.9 52 210 0.3 0.8 1008.4 0.0000 0.0000
16:16 25.3 14.7 52 225 0.3 0.8 1008.4 0.0000 0.0000
16:27 25.1 15.1 54 270 0.3 0.8 1008.3 0.0000 0.0000
16:46 24.4 14.5 54 270 0.8 1.7 1008.1 0.0000 0.0000
16:57 24 14.1 54 270 0.6 1.7 1008.1 0.0000 0.0000
17:07 23.6 14.3 56 270 1.7 2.8 1008.1 0.0000 0.0000
17:17 23.1 13.9 56 270 1.7 2.2 1008 0.0000 0.0000
17:27 22.6 13.4 56 270 1.4 2.8 1008 0.0000 0.0000
17:37 22.2 13.3 57 270 1.4 2.2 1007.9 0.0000 0.0000
17:47 21.9 13.5 59 275 1.7 2.2 1008 0.0000 0.0000
17:57 21.5 12.9 58 270 1.1 1.9 1008 0.0000 0.0000
18:07 21.3 13 59 270 1.1 1.7 1008 0.0000 0.0000
18:18 20.8 12.5 59 270 1.1 1.7 1007.8 0.0000 0.0000
18:28 20.8 12.8 60 270 1.1 1.7 1007.8 0.0000 0.0000
18:38 20.4 12.4 60 270 0.8 1.4 1007.8 0.0000 0.0000
18:48 20 12.3 61 270 0.8 1.4 1007.8 0.0000 0.0000
18:58 19.7 12 61 270 0.8 1.4 1007.9 0.0000 0.0000
19:08 19.5 12.3 63 270 0.8 1.4 1007.9 0.0000 0.0000
19:18 19.4 11.7 61 270 0.8 1.4 1007.7 0.0000 0.0000
19:29 18.9 11.5 62 270 0.8 1.4 1007.7 0.0000 0.0000

DAY STATISTIC

2019-10-23
TEMPERATURE
AVERAGE
18.6
HIGH
25.6
15:26
LOW
15.0
06:00
PRESSURE
AVERAGE
1011.3
HIGH
1016.4
00:03
LOW
1007.7
19:18
DEWPOINT
AVERAGE
12.2
HIGH
15.1
14:45
LOW
10.2
07:51
HUMIDITY
AVERAGE
67
HIGH
79
06:11
LOW
52
15:16
WIND SPEED
AVERAGE
0.4
HIGH
1.7
17:07
WIND GUST
AVERAGE
1.0
HIGH
2.8
17:07
WIND DIRECTION
PREVAILING
SW
52.9%
N
0.0
NE
0.0
E
0.0
SE
2.9
S
9.8
SW
52.9
W
22.5
NW
0.0
PRECIPITATION
RAIN HOUR
0.0
RAIN DAY
0.0
TEMPERATURE (°C)
LOW
15.0
HIGH
25.6
AVERAGE
18.6
PRESSURE (hpa)
LOW
1007.7
HIGH
1016.4
AVERAGE
1011.3
DEVICE